createdAt,value
2019-03-30T00:00:37.695Z,16.20
2019-03-30T00:01:37.623Z,13.10
2019-03-30T00:02:37.567Z,13.20
2019-03-30T00:03:37.496Z,13.70
2019-03-30T00:04:37.431Z,15.70
2019-03-30T00:05:37.367Z,15.30
2019-03-30T00:06:37.299Z,13.30
2019-03-30T00:07:37.233Z,13.90
2019-03-30T00:08:37.168Z,15.50
2019-03-30T00:09:37.101Z,15.20
2019-03-30T00:10:37.035Z,12.50
2019-03-30T00:11:36.970Z,17.60
2019-03-30T00:12:36.907Z,15.00
2019-03-30T00:13:36.836Z,13.00
2019-03-30T00:14:36.781Z,13.60
2019-03-30T00:15:36.713Z,10.30
2019-03-30T00:16:36.639Z,12.10
2019-03-30T00:17:36.575Z,15.50
2019-03-30T00:18:36.508Z,15.20
2019-03-30T00:19:36.449Z,12.30
2019-03-30T00:20:36.377Z,14.20
2019-03-30T00:21:36.313Z,14.60
2019-03-30T00:22:36.245Z,13.70
2019-03-30T00:23:36.178Z,13.00
2019-03-30T00:24:36.112Z,14.80
2019-03-30T00:25:36.065Z,15.60
2019-03-30T00:26:35.978Z,15.40
2019-03-30T00:27:35.914Z,11.00
2019-03-30T00:28:35.849Z,11.90
2019-03-30T00:29:35.780Z,13.30
2019-03-30T00:30:35.716Z,13.10
2019-03-30T00:31:35.651Z,13.40
2019-03-30T00:32:35.585Z,10.60
2019-03-30T00:33:35.517Z,11.30
2019-03-30T00:34:35.451Z,12.60
2019-03-30T00:35:35.389Z,11.00
2019-03-30T00:36:35.323Z,13.30
2019-03-30T00:37:35.256Z,16.20
2019-03-30T00:38:35.187Z,15.60
2019-03-30T00:39:35.121Z,14.90
2019-03-30T00:40:35.056Z,13.60
2019-03-30T00:41:34.987Z,13.00
2019-03-30T00:42:34.923Z,15.60
2019-03-30T00:43:34.856Z,13.60
2019-03-30T00:44:34.789Z,12.90
2019-03-30T00:45:34.724Z,11.70
2019-03-30T00:46:34.659Z,12.50
2019-03-30T00:47:34.592Z,10.30
2019-03-30T00:48:34.526Z,17.10
2019-03-30T00:49:48.173Z,10.40
2019-03-30T00:50:34.391Z,12.70
2019-03-30T00:51:34.325Z,12.50
2019-03-30T00:52:34.264Z,11.80
2019-03-30T00:53:34.195Z,12.00
2019-03-30T00:54:34.126Z,15.00
2019-03-30T00:55:34.060Z,14.30
2019-03-30T00:56:33.993Z,13.50
2019-03-30T00:57:33.926Z,12.40
2019-03-30T00:58:33.875Z,13.50
2019-03-30T00:59:33.795Z,12.90
2019-03-30T01:00:33.731Z,15.90
2019-03-30T01:01:33.663Z,21.20
2019-03-30T01:02:33.596Z,14.80
2019-03-30T01:03:33.529Z,13.60
2019-03-30T01:04:33.465Z,16.00
2019-03-30T01:05:33.392Z,13.40
2019-03-30T01:06:33.335Z,14.30
2019-03-30T01:07:33.265Z,13.40
2019-03-30T01:08:33.199Z,12.50
2019-03-30T01:09:33.134Z,14.00
2019-03-30T01:10:33.065Z,12.20
2019-03-30T01:11:33.000Z,14.80
2019-03-30T01:12:32.934Z,14.30
2019-03-30T01:13:32.866Z,16.10
2019-03-30T01:14:32.800Z,18.00
2019-03-30T01:15:32.735Z,16.90
2019-03-30T01:16:32.667Z,12.50
2019-03-30T01:17:32.600Z,13.10
2019-03-30T01:18:32.536Z,14.30
2019-03-30T01:19:32.468Z,11.10
2019-03-30T01:20:32.443Z,14.30
2019-03-30T01:21:32.334Z,13.50
2019-03-30T01:22:32.271Z,14.70
2019-03-30T01:23:32.236Z,14.50
2019-03-30T01:24:32.137Z,11.60
2019-03-30T01:25:32.069Z,16.40
2019-03-30T01:26:32.004Z,11.90
2019-03-30T01:27:31.940Z,16.90
2019-03-30T01:28:31.874Z,13.50
2019-03-30T01:29:31.802Z,13.30
2019-03-30T01:30:31.737Z,13.30
2019-03-30T01:31:31.667Z,13.10
2019-03-30T01:32:34.831Z,11.60
2019-03-30T01:33:31.538Z,11.10
2019-03-30T01:34:31.475Z,12.50
2019-03-30T01:35:31.406Z,13.40
2019-03-30T01:36:31.342Z,12.90
2019-03-30T01:37:31.273Z,15.00
2019-03-30T01:38:31.206Z,11.70
2019-03-30T01:39:31.141Z,14.10
2019-03-30T01:40:31.075Z,11.40
2019-03-30T01:41:31.007Z,13.70
2019-03-30T01:42:30.940Z,12.50
2019-03-30T01:43:30.874Z,12.10
2019-03-30T01:44:30.808Z,12.60
2019-03-30T01:45:30.742Z,13.90
2019-03-30T01:46:30.675Z,12.10
2019-03-30T01:47:30.611Z,12.70
2019-03-30T01:48:30.544Z,11.70
2019-03-30T01:49:30.474Z,16.70
2019-03-30T01:50:30.409Z,12.00
2019-03-30T01:51:30.340Z,12.50
2019-03-30T01:52:30.277Z,14.00
2019-03-30T01:53:30.303Z,12.80
2019-03-30T01:54:30.147Z,11.60
2019-03-30T01:55:30.076Z,15.80
2019-03-30T01:56:30.011Z,12.70
2019-03-30T01:57:29.946Z,13.20
2019-03-30T01:58:29.877Z,11.50
2019-03-30T01:59:29.812Z,13.20
2019-03-30T02:00:29.741Z,13.00
2019-03-30T02:01:29.677Z,14.20
2019-03-30T02:02:29.610Z,14.60
2019-03-30T02:03:29.543Z,11.80
2019-03-30T02:04:29.478Z,13.70
2019-03-30T02:05:29.414Z,12.10
2019-03-30T02:06:29.345Z,13.00
2019-03-30T02:07:29.277Z,13.70
2019-03-30T02:08:29.213Z,10.50
2019-03-30T02:09:29.144Z,15.20
2019-03-30T02:10:29.079Z,12.90
2019-03-30T02:11:29.011Z,13.70
2019-03-30T02:12:28.946Z,13.10
2019-03-30T02:13:28.877Z,12.80
2019-03-30T02:14:28.813Z,12.90
2019-03-30T02:15:28.746Z,11.60
2019-03-30T02:16:28.678Z,15.30
2019-03-30T02:17:28.612Z,13.20
2019-03-30T02:18:28.546Z,12.90
2019-03-30T02:19:28.476Z,11.20
2019-03-30T02:20:30.897Z,11.90
2019-03-30T02:21:28.345Z,13.70
2019-03-30T02:22:28.284Z,12.10
2019-03-30T02:23:28.213Z,12.00
2019-03-30T02:24:28.148Z,11.80
2019-03-30T02:25:28.083Z,11.70
2019-03-30T02:26:28.012Z,8.80
2019-03-30T02:27:27.946Z,14.30
2019-03-30T02:28:27.879Z,11.40
2019-03-30T02:29:27.812Z,11.90
2019-03-30T02:30:27.746Z,12.60
2019-03-30T02:31:27.679Z,13.50
2019-03-30T02:32:27.613Z,13.80
2019-03-30T02:33:27.546Z,15.20
2019-03-30T02:34:27.480Z,12.40
2019-03-30T02:35:27.412Z,14.90
2019-03-30T02:36:27.346Z,12.50
2019-03-30T02:37:27.278Z,13.00
2019-03-30T02:38:27.245Z,14.20
2019-03-30T02:39:27.148Z,15.80
2019-03-30T02:40:27.078Z,15.10
2019-03-30T02:41:27.011Z,10.50
2019-03-30T02:42:26.946Z,12.70
2019-03-30T02:43:26.878Z,10.40
2019-03-30T02:44:26.812Z,14.10
2019-03-30T02:45:26.745Z,13.00
2019-03-30T02:46:26.678Z,14.00
2019-03-30T02:47:26.613Z,12.30
2019-03-30T02:48:26.554Z,11.20
2019-03-30T02:49:26.480Z,12.10
2019-03-30T02:50:26.409Z,15.50
2019-03-30T02:51:26.345Z,14.70
2019-03-30T02:52:26.277Z,10.90
2019-03-30T02:53:26.217Z,13.30
2019-03-30T02:54:26.147Z,11.30
2019-03-30T02:55:26.077Z,15.60
2019-03-30T02:56:26.011Z,13.70
2019-03-30T02:57:25.958Z,14.30
2019-03-30T02:58:25.878Z,13.90
2019-03-30T02:59:25.809Z,12.30
2019-03-30T03:00:25.749Z,13.10
2019-03-30T03:01:25.678Z,13.50
2019-03-30T03:02:25.610Z,14.30
2019-03-30T03:03:25.543Z,12.00
2019-03-30T03:04:25.483Z,12.70
2019-03-30T03:05:25.403Z,13.20
2019-03-30T03:06:25.340Z,15.70
2019-03-30T03:07:25.287Z,11.70
2019-03-30T03:08:25.209Z,15.50
2019-03-30T03:09:25.144Z,12.60
2019-03-30T03:10:25.073Z,11.50
2019-03-30T03:11:25.007Z,15.60
2019-03-30T03:12:24.940Z,14.20
2019-03-30T03:13:24.877Z,13.10
2019-03-30T03:14:24.817Z,10.80
2019-03-30T03:15:24.744Z,10.40
2019-03-30T03:16:27.280Z,15.20
2019-03-30T03:17:24.605Z,12.10
2019-03-30T03:18:24.540Z,12.70
2019-03-30T03:19:24.472Z,11.20
2019-03-30T03:20:24.414Z,10.60
2019-03-30T03:21:24.339Z,14.80
2019-03-30T03:22:24.274Z,12.10
2019-03-30T03:23:24.217Z,10.90
2019-03-30T03:24:24.137Z,13.00
2019-03-30T03:25:24.070Z,9.20
2019-03-30T03:26:24.022Z,13.80
2019-03-30T03:27:23.938Z,15.30
2019-03-30T03:28:23.872Z,10.90
2019-03-30T03:29:23.810Z,13.50
2019-03-30T03:30:23.765Z,10.90
2019-03-30T03:31:23.697Z,12.30
2019-03-30T03:32:23.627Z,10.50
2019-03-30T03:33:23.550Z,14.40
2019-03-30T03:34:23.468Z,14.20
2019-03-30T03:35:23.426Z,10.50
2019-03-30T03:36:23.335Z,10.90
2019-03-30T03:37:23.270Z,11.30
2019-03-30T03:38:23.206Z,10.00
2019-03-30T03:39:23.133Z,12.50
2019-03-30T03:40:23.068Z,14.10
2019-03-30T03:41:22.999Z,13.90
2019-03-30T03:42:22.934Z,11.00
2019-03-30T03:43:22.867Z,10.00
2019-03-30T03:44:22.798Z,11.30
2019-03-30T03:45:22.730Z,13.00
2019-03-30T03:46:22.666Z,11.10
2019-03-30T03:47:22.595Z,13.00
2019-03-30T03:48:22.548Z,12.90
2019-03-30T03:49:22.464Z,10.50
2019-03-30T03:50:22.398Z,11.50
2019-03-30T03:51:26.102Z,16.10
2019-03-30T03:52:22.264Z,13.30
2019-03-30T03:53:22.195Z,11.60
2019-03-30T03:54:22.129Z,11.70
2019-03-30T03:55:22.061Z,12.00
2019-03-30T03:56:22.130Z,8.60
2019-03-30T03:57:21.927Z,10.90
2019-03-30T03:58:21.862Z,9.90
2019-03-30T03:59:21.828Z,9.50
2019-03-30T04:00:21.729Z,11.90
2019-03-30T04:01:21.660Z,11.70
2019-03-30T04:02:21.595Z,10.80
2019-03-30T04:03:21.528Z,11.90
2019-03-30T04:04:21.460Z,10.60
2019-03-30T04:05:21.392Z,9.30
2019-03-30T04:06:21.324Z,13.90
2019-03-30T04:07:21.258Z,10.90
2019-03-30T04:08:21.192Z,12.00
2019-03-30T04:09:21.124Z,13.70
2019-03-30T04:10:21.055Z,14.00
2019-03-30T04:11:20.989Z,10.40
2019-03-30T04:12:20.924Z,12.70
2019-03-30T04:13:20.858Z,11.40
2019-03-30T04:14:20.789Z,11.80
2019-03-30T04:15:20.724Z,11.90
2019-03-30T04:16:20.656Z,8.40
2019-03-30T04:17:20.588Z,14.70
2019-03-30T04:18:20.537Z,11.50
2019-03-30T04:19:20.453Z,12.90
2019-03-30T04:20:20.387Z,9.30
2019-03-30T04:21:20.329Z,13.60
2019-03-30T04:22:20.255Z,11.00
2019-03-30T04:23:20.185Z,10.60
2019-03-30T04:24:20.132Z,11.80
2019-03-30T04:25:20.050Z,9.60
2019-03-30T04:26:19.984Z,11.20
2019-03-30T04:27:19.915Z,18.30
2019-03-30T04:28:19.850Z,12.90
2019-03-30T04:29:19.783Z,12.60
2019-03-30T04:30:19.715Z,13.40
2019-03-30T04:31:19.652Z,12.70
2019-03-30T04:32:19.586Z,12.00
2019-03-30T04:33:19.520Z,10.60
2019-03-30T04:34:19.448Z,12.00
2019-03-30T04:35:19.381Z,10.90
2019-03-30T04:36:19.316Z,9.70
2019-03-30T04:37:19.245Z,11.00
2019-03-30T04:38:19.177Z,11.80
2019-03-30T04:39:19.115Z,11.30
2019-03-30T04:40:19.157Z,11.20
2019-03-30T04:41:18.978Z,9.00
2019-03-30T04:42:18.909Z,11.50
2019-03-30T04:43:18.843Z,11.20
2019-03-30T04:44:18.779Z,10.10
2019-03-30T04:45:18.712Z,11.50
2019-03-30T04:46:18.643Z,11.80
2019-03-30T04:47:18.575Z,12.60
2019-03-30T04:48:18.508Z,10.10
2019-03-30T04:49:18.445Z,10.90
2019-03-30T04:50:18.373Z,14.00
2019-03-30T04:51:18.308Z,14.40
2019-03-30T04:52:18.240Z,12.30
2019-03-30T04:53:18.172Z,14.10
2019-03-30T04:54:18.110Z,10.80
2019-03-30T04:55:18.037Z,11.60
2019-03-30T04:56:17.976Z,10.90
2019-03-30T04:57:17.902Z,12.60
2019-03-30T04:58:17.837Z,9.10
2019-03-30T04:59:17.774Z,14.30
2019-03-30T05:00:17.703Z,16.00
2019-03-30T05:01:17.637Z,12.10
2019-03-30T05:02:17.570Z,9.50
2019-03-30T05:03:17.502Z,9.90
2019-03-30T05:04:17.435Z,9.70
2019-03-30T05:05:17.365Z,10.00
2019-03-30T05:06:17.300Z,12.60
2019-03-30T05:07:17.232Z,12.70
2019-03-30T05:08:17.165Z,15.10
2019-03-30T05:09:17.104Z,12.30
2019-03-30T05:10:17.032Z,12.30
2019-03-30T05:11:16.964Z,9.40
2019-03-30T05:12:16.897Z,11.80
2019-03-30T05:13:16.882Z,13.80
2019-03-30T05:14:16.757Z,11.70
2019-03-30T05:15:16.697Z,12.80
2019-03-30T05:16:16.628Z,12.80
2019-03-30T05:17:16.560Z,12.20
2019-03-30T05:18:16.492Z,13.40
2019-03-30T05:19:16.424Z,14.60
2019-03-30T05:20:16.359Z,10.30
2019-03-30T05:21:16.291Z,13.20
2019-03-30T05:22:16.734Z,11.40
2019-03-30T05:23:16.156Z,10.40
2019-03-30T05:24:16.093Z,10.80
2019-03-30T05:25:16.025Z,11.30
2019-03-30T05:26:15.955Z,12.50
2019-03-30T05:27:15.890Z,9.00
2019-03-30T05:28:15.861Z,12.20
2019-03-30T05:29:15.758Z,13.70
2019-03-30T05:30:15.687Z,13.30
2019-03-30T05:31:15.620Z,15.50
2019-03-30T05:32:15.552Z,14.20
2019-03-30T05:33:15.489Z,12.20
2019-03-30T05:34:15.414Z,12.80
2019-03-30T05:35:15.358Z,13.00
2019-03-30T05:36:15.281Z,12.70
2019-03-30T05:37:15.220Z,17.80
2019-03-30T05:38:15.151Z,12.30
2019-03-30T05:39:15.083Z,13.70
2019-03-30T05:40:15.015Z,12.80
2019-03-30T05:41:14.947Z,14.20
2019-03-30T05:42:14.881Z,14.30
2019-03-30T05:43:14.815Z,11.60
2019-03-30T05:44:14.749Z,12.10
2019-03-30T05:45:14.679Z,11.40
2019-03-30T05:46:14.614Z,13.10
2019-03-30T05:47:14.549Z,13.30
2019-03-30T05:48:14.477Z,10.80
2019-03-30T05:49:14.410Z,13.70
2019-03-30T05:50:14.342Z,13.90
2019-03-30T05:51:14.275Z,15.90
2019-03-30T05:52:25.741Z,10.90
2019-03-30T05:53:14.142Z,11.30
2019-03-30T05:54:14.075Z,17.00
2019-03-30T05:55:14.009Z,13.00
2019-03-30T05:56:13.940Z,14.80
2019-03-30T05:57:13.872Z,11.30
2019-03-30T05:58:13.807Z,11.60
2019-03-30T05:59:13.738Z,12.30
2019-03-30T06:00:13.675Z,10.90
2019-03-30T06:01:13.606Z,11.30
2019-03-30T06:02:13.537Z,13.40
2019-03-30T06:03:13.471Z,11.30
2019-03-30T06:04:13.404Z,11.20
2019-03-30T06:05:13.337Z,15.60
2019-03-30T06:06:13.270Z,11.10
2019-03-30T06:07:13.204Z,9.90
2019-03-30T06:08:13.138Z,13.30
2019-03-30T06:09:13.068Z,14.30
2019-03-30T06:10:13.001Z,9.60
2019-03-30T06:11:12.934Z,15.20
2019-03-30T06:12:12.868Z,11.60
2019-03-30T06:13:12.799Z,12.80
2019-03-30T06:14:12.733Z,13.30
2019-03-30T06:15:12.668Z,12.60
2019-03-30T06:16:12.600Z,10.60
2019-03-30T06:17:12.533Z,12.00
2019-03-30T06:18:12.464Z,14.00
2019-03-30T06:19:12.414Z,13.30
2019-03-30T06:20:12.337Z,16.70
2019-03-30T06:21:12.263Z,12.70
2019-03-30T06:22:12.197Z,10.60
2019-03-30T06:23:12.133Z,11.60
2019-03-30T06:24:12.063Z,12.20
2019-03-30T06:25:11.994Z,11.40
2019-03-30T06:26:11.930Z,14.30
2019-03-30T06:27:11.862Z,13.20
2019-03-30T06:28:11.799Z,10.70
2019-03-30T06:29:11.730Z,13.60
2019-03-30T06:30:11.665Z,12.70
2019-03-30T06:31:11.598Z,16.40
2019-03-30T06:32:11.532Z,11.50
2019-03-30T06:33:11.462Z,13.00
2019-03-30T06:34:11.395Z,10.30
2019-03-30T06:35:11.329Z,11.90
2019-03-30T06:36:11.260Z,13.70
2019-03-30T06:37:11.194Z,13.70
2019-03-30T06:38:11.128Z,13.20
2019-03-30T06:39:11.151Z,18.60
2019-03-30T06:40:10.993Z,11.70
2019-03-30T06:41:10.927Z,12.70
2019-03-30T06:42:10.861Z,12.60
2019-03-30T06:43:10.793Z,10.90
2019-03-30T06:44:10.732Z,14.40
2019-03-30T06:45:10.662Z,12.40
2019-03-30T06:46:10.594Z,13.50
2019-03-30T06:47:10.528Z,11.90
2019-03-30T06:48:10.461Z,10.00
2019-03-30T06:49:10.394Z,13.30
2019-03-30T06:50:10.331Z,9.10
2019-03-30T06:51:10.261Z,14.50
2019-03-30T06:52:10.200Z,11.10
2019-03-30T06:53:10.128Z,16.10
2019-03-30T06:54:10.063Z,10.30
2019-03-30T06:55:09.998Z,12.60
2019-03-30T06:56:09.930Z,13.80
2019-03-30T06:57:09.863Z,17.70
2019-03-30T06:58:09.799Z,11.70
2019-03-30T06:59:09.733Z,11.80
2019-03-30T07:00:09.664Z,16.60
2019-03-30T07:01:09.595Z,13.30
2019-03-30T07:02:09.530Z,14.40
2019-03-30T07:03:09.465Z,12.10
2019-03-30T07:04:11.282Z,12.70
2019-03-30T07:05:09.335Z,11.50
2019-03-30T07:06:09.264Z,8.90
2019-03-30T07:07:09.198Z,12.70
2019-03-30T07:08:09.133Z,11.40
2019-03-30T07:09:09.067Z,14.50
2019-03-30T07:10:08.999Z,14.00
2019-03-30T07:11:20.566Z,13.70
2019-03-30T07:12:08.876Z,10.90
2019-03-30T07:13:08.802Z,11.60
2019-03-30T07:14:08.737Z,15.20
2019-03-30T07:15:08.670Z,12.60
2019-03-30T07:16:08.605Z,15.40
2019-03-30T07:17:08.540Z,15.90
2019-03-30T07:18:08.472Z,13.50
2019-03-30T07:19:08.408Z,14.00
2019-03-30T07:20:08.340Z,16.40
2019-03-30T07:21:08.276Z,9.90
2019-03-30T07:22:08.209Z,13.30
2019-03-30T07:23:12.404Z,10.70
2019-03-30T07:24:08.076Z,14.00
2019-03-30T07:25:08.011Z,14.10
2019-03-30T07:26:07.945Z,13.90
2019-03-30T07:27:07.879Z,12.50
2019-03-30T07:28:07.875Z,14.60
2019-03-30T07:29:07.747Z,12.70
2019-03-30T07:30:07.682Z,16.10
2019-03-30T07:31:07.620Z,13.70
2019-03-30T07:32:07.551Z,16.50
2019-03-30T07:33:07.486Z,12.30
2019-03-30T07:34:07.421Z,17.50
2019-03-30T07:35:07.356Z,13.70
2019-03-30T07:36:07.289Z,12.20
2019-03-30T07:37:07.224Z,12.30
2019-03-30T07:38:07.159Z,15.00
2019-03-30T07:39:07.092Z,14.90
2019-03-30T07:40:07.027Z,15.50
2019-03-30T07:41:06.966Z,16.40
2019-03-30T07:42:06.896Z,13.20
2019-03-30T07:43:06.830Z,10.80
2019-03-30T07:44:06.765Z,16.00
2019-03-30T07:45:06.698Z,16.70
2019-03-30T07:46:06.633Z,14.80
2019-03-30T07:47:06.570Z,16.40
2019-03-30T07:48:06.504Z,15.00
2019-03-30T07:49:06.439Z,14.50
2019-03-30T07:50:06.380Z,17.30
2019-03-30T07:51:06.307Z,14.80
2019-03-30T07:52:06.250Z,16.70
2019-03-30T07:53:06.175Z,12.20
2019-03-30T07:54:06.112Z,14.10
2019-03-30T07:55:06.045Z,11.90
2019-03-30T07:56:08.756Z,15.40
2019-03-30T07:57:16.543Z,14.10
2019-03-30T07:58:05.886Z,12.00
2019-03-30T07:59:05.786Z,15.10
2019-03-30T08:00:05.724Z,14.50
2019-03-30T08:01:05.656Z,14.80
2019-03-30T08:02:05.592Z,14.30
2019-03-30T08:03:05.526Z,13.20
2019-03-30T08:04:05.462Z,16.00
2019-03-30T08:05:05.475Z,14.80
2019-03-30T08:06:05.331Z,14.40
2019-03-30T08:07:05.266Z,16.80
2019-03-30T08:08:05.207Z,13.90
2019-03-30T08:09:05.138Z,10.80
2019-03-30T08:10:05.072Z,16.80
2019-03-30T08:11:05.007Z,12.90
2019-03-30T08:12:04.943Z,12.90
2019-03-30T08:13:04.878Z,15.20
2019-03-30T08:14:04.814Z,12.50
2019-03-30T08:15:04.749Z,15.90
2019-03-30T08:16:04.689Z,14.70
2019-03-30T08:17:04.620Z,14.20
2019-03-30T08:18:04.555Z,16.20
2019-03-30T08:19:04.489Z,14.60
2019-03-30T08:20:04.426Z,13.80
2019-03-30T08:21:04.364Z,10.70
2019-03-30T08:22:04.297Z,13.40
2019-03-30T08:23:04.229Z,14.50
2019-03-30T08:24:04.169Z,12.90
2019-03-30T08:25:04.105Z,13.60
2019-03-30T08:26:04.039Z,14.80
2019-03-30T08:27:03.981Z,15.40
2019-03-30T08:28:03.911Z,13.70
2019-03-30T08:29:03.845Z,17.50
2019-03-30T08:30:03.782Z,16.30
2019-03-30T08:31:03.720Z,12.40
2019-03-30T08:32:03.737Z,15.00
2019-03-30T08:33:03.589Z,11.90
2019-03-30T08:34:03.529Z,12.70
2019-03-30T08:35:03.464Z,14.80
2019-03-30T08:36:03.399Z,13.50
2019-03-30T08:37:03.331Z,13.60
2019-03-30T08:38:03.276Z,16.20
2019-03-30T08:39:03.203Z,12.80
2019-03-30T08:40:03.143Z,13.00
2019-03-30T08:41:03.079Z,13.70
2019-03-30T08:42:03.011Z,12.50
2019-03-30T08:43:02.951Z,16.70
2019-03-30T08:44:02.885Z,13.60
2019-03-30T08:45:02.820Z,12.20
2019-03-30T08:46:02.755Z,11.90
2019-03-30T08:47:02.696Z,11.50
2019-03-30T08:48:02.630Z,13.00
2019-03-30T08:49:02.566Z,11.60
2019-03-30T08:50:02.500Z,12.70
2019-03-30T08:51:02.441Z,11.10
2019-03-30T08:52:02.372Z,11.60
2019-03-30T08:53:02.309Z,10.80
2019-03-30T08:54:02.245Z,11.80
2019-03-30T08:55:02.184Z,10.90
2019-03-30T08:56:02.122Z,14.80
2019-03-30T08:57:02.058Z,12.60
2019-03-30T08:58:01.990Z,11.70
2019-03-30T08:59:01.928Z,9.90
2019-03-30T09:00:01.865Z,13.80
2019-03-30T09:01:01.799Z,10.20
2019-03-30T09:02:01.736Z,13.70
2019-03-30T09:03:01.679Z,12.70
2019-03-30T09:04:01.611Z,11.00
2019-03-30T09:05:01.553Z,13.00
2019-03-30T09:06:01.483Z,13.00
2019-03-30T09:07:01.422Z,10.10
2019-03-30T09:08:01.355Z,9.70
2019-03-30T09:09:01.292Z,10.20
2019-03-30T09:10:01.231Z,8.60
2019-03-30T09:11:01.168Z,12.20
2019-03-30T09:12:01.105Z,10.60
2019-03-30T09:13:01.040Z,12.40
2019-03-30T09:14:00.975Z,11.00
2019-03-30T09:15:00.912Z,12.00
2019-03-30T09:16:00.851Z,12.10
2019-03-30T09:17:00.787Z,11.70
2019-03-30T09:18:00.735Z,13.10
2019-03-30T09:19:00.664Z,12.50
2019-03-30T09:20:00.624Z,10.50
2019-03-30T09:21:00.531Z,11.10
2019-03-30T09:22:00.469Z,16.50
2019-03-30T09:23:00.406Z,14.60
2019-03-30T09:24:09.334Z,10.30
2019-03-30T09:25:00.515Z,11.10
2019-03-30T09:26:00.219Z,9.30
2019-03-30T09:27:00.155Z,11.30
2019-03-30T09:28:00.091Z,13.00
2019-03-30T09:29:00.109Z,7.60
2019-03-30T09:29:59.963Z,12.40
2019-03-30T09:30:59.902Z,12.90
2019-03-30T09:32:13.315Z,13.10
2019-03-30T09:32:59.779Z,11.50
2019-03-30T09:33:59.711Z,11.70
2019-03-30T09:34:59.649Z,12.70
2019-03-30T09:35:59.588Z,11.90
2019-03-30T09:36:59.528Z,11.00
2019-03-30T09:37:59.454Z,12.60
2019-03-30T09:38:59.398Z,14.60
2019-03-30T09:39:59.337Z,13.20
2019-03-30T09:40:59.271Z,12.00
2019-03-30T09:41:59.212Z,11.90
2019-03-30T09:42:59.151Z,10.20
2019-03-30T09:43:59.084Z,10.30
2019-03-30T09:44:59.026Z,11.60
2019-03-30T09:45:58.957Z,12.40
2019-03-30T09:46:58.899Z,16.00
2019-03-30T09:47:58.842Z,12.60
2019-03-30T09:48:58.767Z,9.50
2019-03-30T09:50:02.143Z,12.60
2019-03-30T09:50:58.645Z,8.10
2019-03-30T09:51:58.581Z,11.00
2019-03-30T09:52:58.518Z,13.20
2019-03-30T09:53:58.465Z,13.20
2019-03-30T09:54:58.396Z,10.10
2019-03-30T09:55:58.334Z,8.30
2019-03-30T09:56:58.270Z,14.40
2019-03-30T09:57:58.206Z,10.40
2019-03-30T09:58:58.144Z,11.00
2019-03-30T09:59:58.082Z,10.80
2019-03-30T10:00:58.019Z,11.90
2019-03-30T10:01:57.955Z,9.60
2019-03-30T10:02:57.895Z,9.80
2019-03-30T10:03:57.833Z,9.80
2019-03-30T10:04:57.773Z,11.30
2019-03-30T10:05:57.707Z,10.00
2019-03-30T10:06:57.647Z,10.70
2019-03-30T10:07:57.588Z,10.30
2019-03-30T10:08:57.519Z,10.40
2019-03-30T10:09:57.460Z,13.30
2019-03-30T10:10:57.399Z,10.90
2019-03-30T10:11:57.334Z,13.00
2019-03-30T10:12:57.273Z,11.10
2019-03-30T10:13:57.209Z,13.10
2019-03-30T10:14:57.150Z,12.70
2019-03-30T10:15:57.098Z,12.00
2019-03-30T10:16:57.023Z,10.20
2019-03-30T10:17:56.963Z,9.80
2019-03-30T10:18:56.900Z,12.50
2019-03-30T10:20:04.383Z,14.10
2019-03-30T10:20:56.777Z,12.30
2019-03-30T10:21:56.720Z,9.80
2019-03-30T10:22:56.655Z,8.70
2019-03-30T10:23:56.593Z,12.70
2019-03-30T10:24:58.433Z,8.40
2019-03-30T10:25:56.467Z,10.90
2019-03-30T10:26:56.405Z,9.20
2019-03-30T10:27:56.346Z,11.00
2019-03-30T10:28:56.281Z,10.80
2019-03-30T10:29:56.223Z,8.50
2019-03-30T10:30:56.158Z,11.10
2019-03-30T10:31:56.113Z,9.90
2019-03-30T10:32:56.034Z,12.10
2019-03-30T10:33:55.976Z,10.60
2019-03-30T10:34:55.912Z,10.30
2019-03-30T10:35:55.849Z,10.50
2019-03-30T10:36:55.790Z,9.50
2019-03-30T10:37:55.727Z,12.80
2019-03-30T10:38:55.666Z,10.00
2019-03-30T10:39:55.608Z,12.40
2019-03-30T10:40:55.541Z,12.30
2019-03-30T10:41:55.482Z,11.10
2019-03-30T10:42:55.421Z,11.00
2019-03-30T10:43:55.355Z,10.60
2019-03-30T10:44:55.303Z,8.40
2019-03-30T10:45:55.235Z,9.30
2019-03-30T10:46:55.174Z,10.00
2019-03-30T10:47:55.113Z,10.00
2019-03-30T10:48:55.051Z,9.50
2019-03-30T10:49:54.992Z,10.80
2019-03-30T10:50:54.940Z,9.30
2019-03-30T10:51:54.868Z,14.10
2019-03-30T10:52:54.806Z,8.30
2019-03-30T10:53:54.747Z,10.10
2019-03-30T10:54:54.684Z,10.20
2019-03-30T10:55:54.621Z,9.90
2019-03-30T10:56:54.563Z,8.80
2019-03-30T10:57:54.569Z,11.70
2019-03-30T10:58:54.442Z,16.30
2019-03-30T10:59:54.384Z,7.10
2019-03-30T11:00:54.318Z,8.10
2019-03-30T11:01:54.259Z,9.20
2019-03-30T11:02:54.198Z,10.10
2019-03-30T11:03:54.151Z,8.40
2019-03-30T11:04:54.076Z,7.00
2019-03-30T11:05:54.014Z,10.50
2019-03-30T11:06:53.954Z,6.60
2019-03-30T11:07:53.891Z,9.90
2019-03-30T11:08:53.830Z,10.30
2019-03-30T11:09:53.770Z,7.30
2019-03-30T11:10:53.708Z,7.90
2019-03-30T11:11:53.648Z,10.50
2019-03-30T11:12:53.585Z,9.30
2019-03-30T11:13:53.525Z,9.50
2019-03-30T11:14:53.466Z,9.30
2019-03-30T11:15:53.404Z,8.90
2019-03-30T11:16:53.344Z,10.30
2019-03-30T11:17:53.281Z,9.60
2019-03-30T11:18:53.220Z,11.00
2019-03-30T11:19:53.167Z,7.60
2019-03-30T11:20:53.101Z,9.20
2019-03-30T11:21:53.038Z,7.60
2019-03-30T11:22:52.980Z,10.30
2019-03-30T11:23:52.919Z,8.50
2019-03-30T11:25:06.238Z,7.50
2019-03-30T11:25:52.792Z,8.40
2019-03-30T11:26:52.730Z,9.10
2019-03-30T11:27:52.670Z,7.50
2019-03-30T11:28:52.610Z,7.00
2019-03-30T11:29:52.552Z,7.60
2019-03-30T11:30:52.487Z,10.80
2019-03-30T11:31:52.437Z,7.20
2019-03-30T11:32:52.371Z,8.30
2019-03-30T11:33:52.301Z,6.70
2019-03-30T11:34:52.242Z,12.20
2019-03-30T11:35:52.180Z,9.10
2019-03-30T11:36:52.120Z,9.70
2019-03-30T11:37:52.059Z,7.40
2019-03-30T11:38:51.998Z,7.00
2019-03-30T11:39:51.935Z,4.60
2019-03-30T11:40:51.874Z,6.50
2019-03-30T11:41:51.813Z,6.10
2019-03-30T11:42:51.753Z,5.60
2019-03-30T11:43:51.691Z,9.40
2019-03-30T11:44:51.632Z,7.70
2019-03-30T11:45:51.568Z,4.00
2019-03-30T11:46:51.505Z,6.90
2019-03-30T11:47:51.446Z,6.20
2019-03-30T11:48:51.386Z,8.70
2019-03-30T11:49:51.324Z,6.50
2019-03-30T11:50:51.263Z,6.40
2019-03-30T11:51:51.201Z,8.20
2019-03-30T11:52:51.138Z,6.70
2019-03-30T11:53:51.078Z,5.50
2019-03-30T11:54:51.019Z,10.30
2019-03-30T11:55:50.957Z,11.20
2019-03-30T11:56:50.894Z,7.30
2019-03-30T11:57:50.836Z,4.80
2019-03-30T11:58:50.772Z,5.80
2019-03-30T11:59:50.711Z,5.90
2019-03-30T12:00:50.648Z,6.70
2019-03-30T12:01:50.589Z,9.60
2019-03-30T12:02:50.528Z,6.80
2019-03-30T12:03:50.466Z,7.40
2019-03-30T12:04:50.405Z,8.20
2019-03-30T12:05:50.349Z,4.70
2019-03-30T12:06:51.868Z,7.40
2019-03-30T12:07:50.226Z,5.70
2019-03-30T12:08:50.160Z,4.40
2019-03-30T12:09:50.099Z,6.30
2019-03-30T12:10:50.038Z,7.60
2019-03-30T12:11:49.984Z,6.30
2019-03-30T12:12:49.915Z,4.00
2019-03-30T12:13:49.852Z,3.70
2019-03-30T12:14:49.793Z,4.10
2019-03-30T12:15:49.731Z,8.70
2019-03-30T12:16:49.671Z,6.10
2019-03-30T12:17:49.610Z,5.60
2019-03-30T12:18:49.546Z,8.80
2019-03-30T12:19:49.486Z,8.40
2019-03-30T12:20:49.427Z,4.30
2019-03-30T12:21:49.363Z,4.60
2019-03-30T12:22:49.303Z,6.80
2019-03-30T12:23:49.246Z,5.40
2019-03-30T12:24:49.179Z,7.60
2019-03-30T12:25:49.120Z,7.70
2019-03-30T12:26:49.067Z,7.60
2019-03-30T12:27:48.996Z,4.40
2019-03-30T12:28:48.937Z,5.10
2019-03-30T12:29:48.880Z,7.10
2019-03-30T12:30:48.815Z,4.30
2019-03-30T12:31:48.754Z,6.80
2019-03-30T12:32:48.691Z,6.10
2019-03-30T12:33:48.630Z,5.10
2019-03-30T12:34:48.582Z,5.90
2019-03-30T12:35:48.524Z,15.30
2019-03-30T12:36:48.443Z,7.10
2019-03-30T12:37:48.386Z,2.50
2019-03-30T12:38:48.333Z,7.00
2019-03-30T12:39:48.264Z,6.10
2019-03-30T12:40:48.202Z,6.00
2019-03-30T12:41:48.143Z,7.50
2019-03-30T12:42:48.074Z,3.20
2019-03-30T12:43:48.019Z,4.90
2019-03-30T12:44:47.958Z,5.50
2019-03-30T12:45:47.896Z,5.00
2019-03-30T12:46:47.836Z,6.70
2019-03-30T12:47:47.776Z,10.10
2019-03-30T12:48:47.722Z,13.40
2019-03-30T12:49:47.659Z,5.40
2019-03-30T12:50:47.597Z,7.30
2019-03-30T12:51:47.531Z,4.90
2019-03-30T12:52:47.468Z,4.80
2019-03-30T12:53:50.334Z,8.90
2019-03-30T12:54:47.349Z,5.60
2019-03-30T12:55:49.564Z,7.20
2019-03-30T12:56:47.224Z,4.70